SAS53T EKCH-EKVG
Flight info
| Callsign | SAS53T |
|---|---|
| Flight time | 1h 56m |
| Altitude | 36000 |
| Route | GOLGA DCT AMSEV DCT ZOL DCT GUNPA/M078F360 DCT ROBUR |
| Aircraft | A320/M-SDE3FGHIRWY/LB1 |
Departure
| Time | 2026-04-26 13:25 |
|---|---|
| Airport | Copenhagen Kastrup Airport (EKCH) |
Arrival
| Time | 2026-04-26 15:22 |
|---|---|
| Airport | Vágar Airport (EKVG) |
| Time | Latitude | Longitude | Altitude | Speed | Heading |
|---|---|---|---|---|---|
| 2026-04-26 12:40 | 55.62648 | 12.64555 | 24 ft | 0 kts | 281° |
| 2026-04-26 13:16 | 55.62647 | 12.64570 | 24 ft | 4 kts | 281° |
| 2026-04-26 13:16 | 55.62642 | 12.64610 | 24 ft | 2 kts | 281° |
| 2026-04-26 13:16 | 55.62641 | 12.64650 | 25 ft | 4 kts | 237° |
| 2026-04-26 13:16 | 55.62656 | 12.64670 | 28 ft | 1 kts | 191° |
| 2026-04-26 13:17 | 55.62620 | 12.64657 | 26 ft | 0 kts | 191° |
| 2026-04-26 13:19 | 55.62613 | 12.64655 | 24 ft | 3 kts | 191° |
| 2026-04-26 13:19 | 55.62574 | 12.64651 | 24 ft | 9 kts | 179° |
| 2026-04-26 13:20 | 55.62491 | 12.64656 | 25 ft | 14 kts | 174° |
| 2026-04-26 13:20 | 55.62386 | 12.64679 | 24 ft | 17 kts | 175° |
| 2026-04-26 13:20 | 55.62309 | 12.64753 | 24 ft | 13 kts | 125° |
| 2026-04-26 13:20 | 55.62254 | 12.64900 | 24 ft | 16 kts | 122° |
| 2026-04-26 13:21 | 55.62191 | 12.65074 | 25 ft | 14 kts | 127° |
| 2026-04-26 13:21 | 55.62137 | 12.65090 | 24 ft | 13 kts | 201° |
| 2026-04-26 13:21 | 55.62007 | 12.64944 | 24 ft | 20 kts | 212° |
| 2026-04-26 13:21 | 55.61882 | 12.64803 | 26 ft | 22 kts | 212° |
| 2026-04-26 13:22 | 55.61746 | 12.64644 | 24 ft | 25 kts | 214° |
| 2026-04-26 13:22 | 55.61597 | 12.64472 | 25 ft | 27 kts | 212° |
| 2026-04-26 13:22 | 55.61436 | 12.64287 | 24 ft | 29 kts | 213° |
| 2026-04-26 13:22 | 55.61265 | 12.64089 | 24 ft | 30 kts | 213° |
| 2026-04-26 13:23 | 55.61083 | 12.63882 | 25 ft | 32 kts | 213° |
| 2026-04-26 13:23 | 55.60893 | 12.63662 | 25 ft | 33 kts | 213° |
| 2026-04-26 13:23 | 55.60696 | 12.63435 | 24 ft | 34 kts | 213° |
| 2026-04-26 13:23 | 55.60537 | 12.63213 | 25 ft | 25 kts | 221° |
| 2026-04-26 13:24 | 55.60426 | 12.63127 | 24 ft | 15 kts | 155° |
| 2026-04-26 13:24 | 55.60352 | 12.63261 | 25 ft | 14 kts | 129° |
| 2026-04-26 13:24 | 55.60356 | 12.63372 | 31 ft | 10 kts | 49° |
| 2026-04-26 13:24 | 55.60488 | 12.63575 | 24 ft | 55 kts | 40° |
| 2026-04-26 13:25 | 55.60950 | 12.64288 | 25 ft | 118 kts | 41° |
| 2026-04-26 13:25 | 55.61698 | 12.65445 | 27 ft | 165 kts | 40° |
| 2026-04-26 13:25 | 55.62569 | 12.66800 | 593 ft | 163 kts | 38° |
| 2026-04-26 13:25 | 55.63422 | 12.68137 | 1215 ft | 169 kts | 36° |
| 2026-04-26 13:26 | 55.64368 | 12.69567 | 1569 ft | 187 kts | 36° |
| 2026-04-26 13:26 | 55.65494 | 12.70837 | 1919 ft | 200 kts | 12° |
| 2026-04-26 13:26 | 55.66917 | 12.70933 | 2235 ft | 217 kts | 343° |
| 2026-04-26 13:26 | 55.68293 | 12.69594 | 2650 ft | 237 kts | 321° |
| 2026-04-26 13:27 | 55.69570 | 12.67725 | 3625 ft | 240 kts | 318° |
| 2026-04-26 13:27 | 55.70837 | 12.65751 | 4561 ft | 244 kts | 317° |
| 2026-04-26 13:27 | 55.72114 | 12.63744 | 5522 ft | 247 kts | 317° |
| 2026-04-26 13:27 | 55.73413 | 12.61720 | 6430 ft | 250 kts | 318° |
| 2026-04-26 13:28 | 55.74736 | 12.59680 | 7289 ft | 254 kts | 319° |
| 2026-04-26 13:28 | 55.76077 | 12.57629 | 8174 ft | 255 kts | 319° |
| 2026-04-26 13:28 | 55.77429 | 12.55574 | 9086 ft | 256 kts | 319° |
| 2026-04-26 13:28 | 55.78762 | 12.53548 | 9972 ft | 257 kts | 320° |
| 2026-04-26 13:29 | 55.80152 | 12.51439 | 10675 ft | 266 kts | 320° |
| 2026-04-26 13:29 | 55.81112 | 12.49985 | 10828 ft | 281 kts | 320° |
| 2026-04-26 13:29 | 55.83186 | 12.46843 | 11112 ft | 308 kts | 320° |
| 2026-04-26 13:29 | 55.84861 | 12.44300 | 11687 ft | 316 kts | 320° |
| 2026-04-26 13:30 | 55.86518 | 12.41779 | 12362 ft | 319 kts | 320° |
| 2026-04-26 13:30 | 55.88217 | 12.39193 | 13051 ft | 323 kts | 320° |
| 2026-04-26 13:30 | 55.89933 | 12.36583 | 13762 ft | 326 kts | 320° |
| 2026-04-26 13:30 | 55.91663 | 12.33948 | 14440 ft | 329 kts | 319° |
| 2026-04-26 13:31 | 55.93407 | 12.31288 | 15086 ft | 331 kts | 319° |
| 2026-04-26 13:31 | 55.94591 | 12.29481 | 15514 ft | 333 kts | 319° |
| 2026-04-26 13:31 | 55.96355 | 12.26786 | 16145 ft | 335 kts | 319° |
| 2026-04-26 13:31 | 55.98126 | 12.24081 | 16817 ft | 336 kts | 319° |
| 2026-04-26 13:32 | 55.99908 | 12.21358 | 17466 ft | 338 kts | 319° |
| 2026-04-26 13:32 | 56.01698 | 12.18615 | 18113 ft | 340 kts | 319° |
| 2026-04-26 13:32 | 56.03502 | 12.15843 | 18743 ft | 343 kts | 319° |
| 2026-04-26 13:32 | 56.05291 | 12.13088 | 19310 ft | 346 kts | 319° |
| 2026-04-26 13:33 | 56.07122 | 12.10268 | 19884 ft | 349 kts | 318° |
| 2026-04-26 13:33 | 56.08966 | 12.07422 | 20473 ft | 352 kts | 318° |
| 2026-04-26 13:33 | 56.10826 | 12.04549 | 21038 ft | 354 kts | 318° |
| 2026-04-26 13:33 | 56.12701 | 12.01649 | 21528 ft | 358 kts | 318° |
| 2026-04-26 13:34 | 56.14598 | 11.98706 | 22004 ft | 362 kts | 317° |
| 2026-04-26 13:34 | 56.16512 | 11.95731 | 22493 ft | 366 kts | 317° |
| 2026-04-26 13:34 | 56.18441 | 11.92728 | 22992 ft | 368 kts | 317° |
| 2026-04-26 13:34 | 56.19726 | 11.90728 | 23306 ft | 370 kts | 317° |
| 2026-04-26 13:35 | 56.22345 | 11.86656 | 23932 ft | 374 kts | 317° |
| 2026-04-26 13:35 | 56.24321 | 11.83583 | 24328 ft | 377 kts | 317° |
| 2026-04-26 13:35 | 56.26306 | 11.80488 | 24722 ft | 379 kts | 317° |
| 2026-04-26 13:35 | 56.28298 | 11.77365 | 25128 ft | 381 kts | 317° |
| 2026-04-26 13:36 | 56.30298 | 11.74223 | 25524 ft | 382 kts | 317° |
| 2026-04-26 13:36 | 56.32308 | 11.71066 | 25901 ft | 384 kts | 317° |
| 2026-04-26 13:36 | 56.34210 | 11.67686 | 26262 ft | 385 kts | 310° |
| 2026-04-26 13:36 | 56.35968 | 11.64109 | 26621 ft | 387 kts | 310° |
| 2026-04-26 13:37 | 56.37759 | 11.60465 | 26980 ft | 389 kts | 310° |
| 2026-04-26 13:37 | 56.39557 | 11.56799 | 27327 ft | 391 kts | 310° |
| 2026-04-26 13:37 | 56.41370 | 11.53092 | 27598 ft | 396 kts | 310° |
| 2026-04-26 13:37 | 56.43198 | 11.49344 | 27913 ft | 399 kts | 310° |
| 2026-04-26 13:38 | 56.45037 | 11.45569 | 28254 ft | 401 kts | 310° |
| 2026-04-26 13:38 | 56.46888 | 11.41767 | 28600 ft | 403 kts | 310° |
| 2026-04-26 13:38 | 56.48747 | 11.37951 | 28939 ft | 405 kts | 310° |
| 2026-04-26 13:38 | 56.50615 | 11.34114 | 29269 ft | 407 kts | 310° |
| 2026-04-26 13:39 | 56.52487 | 11.30262 | 29700 ft | 407 kts | 310° |
| 2026-04-26 13:39 | 56.54352 | 11.26419 | 30193 ft | 406 kts | 309° |
| 2026-04-26 13:39 | 56.56211 | 11.22577 | 30644 ft | 404 kts | 309° |
| 2026-04-26 13:39 | 56.58059 | 11.18745 | 31059 ft | 403 kts | 309° |
| 2026-04-26 13:40 | 56.59904 | 11.14924 | 31480 ft | 402 kts | 309° |
| 2026-04-26 13:40 | 56.61740 | 11.11116 | 31939 ft | 400 kts | 309° |
| 2026-04-26 13:40 | 56.63567 | 11.07318 | 32400 ft | 398 kts | 309° |
| 2026-04-26 13:40 | 56.65383 | 11.03527 | 32852 ft | 397 kts | 309° |
| 2026-04-26 13:41 | 56.67191 | 10.99747 | 33278 ft | 396 kts | 309° |
| 2026-04-26 13:41 | 56.68996 | 10.95975 | 33709 ft | 395 kts | 309° |
| 2026-04-26 13:41 | 56.70797 | 10.92212 | 34143 ft | 394 kts | 309° |
| 2026-04-26 13:41 | 56.72589 | 10.88459 | 34534 ft | 393 kts | 309° |
| 2026-04-26 13:42 | 56.74375 | 10.84705 | 34870 ft | 392 kts | 309° |
| 2026-04-26 13:42 | 56.76159 | 10.80943 | 35186 ft | 392 kts | 309° |
| 2026-04-26 13:42 | 56.77943 | 10.77172 | 35296 ft | 393 kts | 309° |
| 2026-04-26 13:43 | 56.81513 | 10.69623 | 35304 ft | 393 kts | 309° |
| 2026-04-26 13:43 | 56.85081 | 10.62066 | 35307 ft | 393 kts | 309° |
| 2026-04-26 13:44 | 56.88626 | 10.54545 | 35306 ft | 394 kts | 309° |
| 2026-04-26 13:44 | 56.92194 | 10.46935 | 35304 ft | 394 kts | 309° |
| 2026-04-26 13:45 | 56.95757 | 10.39294 | 35316 ft | 394 kts | 309° |
| 2026-04-26 13:45 | 56.99313 | 10.31654 | 35300 ft | 394 kts | 309° |
| 2026-04-26 13:46 | 57.02867 | 10.24010 | 35294 ft | 394 kts | 309° |
| 2026-04-26 13:46 | 57.06411 | 10.16336 | 35300 ft | 394 kts | 309° |
| 2026-04-26 13:47 | 57.09952 | 10.08648 | 35283 ft | 394 kts | 309° |
| 2026-04-26 13:47 | 57.13508 | 10.00922 | 35300 ft | 396 kts | 309° |
| 2026-04-26 13:48 | 57.17067 | 9.93161 | 35302 ft | 397 kts | 309° |
| 2026-04-26 13:48 | 57.20623 | 9.85381 | 35299 ft | 397 kts | 309° |
| 2026-04-26 13:49 | 57.24171 | 9.77581 | 35299 ft | 397 kts | 309° |
| 2026-04-26 13:49 | 57.27714 | 9.69760 | 35304 ft | 397 kts | 309° |
| 2026-04-26 13:50 | 57.31251 | 9.61929 | 35297 ft | 396 kts | 309° |
| 2026-04-26 13:50 | 57.34785 | 9.54088 | 35303 ft | 397 kts | 309° |
| 2026-04-26 13:51 | 57.38330 | 9.46216 | 35298 ft | 398 kts | 309° |
| 2026-04-26 13:51 | 57.41870 | 9.38317 | 35296 ft | 398 kts | 308° |
| 2026-04-26 13:52 | 57.45403 | 9.30402 | 35300 ft | 398 kts | 308° |
| 2026-04-26 13:52 | 57.48934 | 9.22473 | 35309 ft | 398 kts | 308° |
| 2026-04-26 13:53 | 57.52457 | 9.14519 | 35297 ft | 398 kts | 308° |
| 2026-04-26 13:53 | 57.55977 | 9.06552 | 35306 ft | 398 kts | 308° |
| 2026-04-26 13:54 | 57.59501 | 8.98549 | 35444 ft | 400 kts | 308° |
| 2026-04-26 13:54 | 57.61263 | 8.94528 | 35793 ft | 400 kts | 308° |
| 2026-04-26 13:54 | 57.63020 | 8.90514 | 36141 ft | 399 kts | 308° |
| 2026-04-26 13:55 | 57.66544 | 8.82442 | 36302 ft | 404 kts | 308° |
| 2026-04-26 13:55 | 57.67716 | 8.79744 | 36301 ft | 404 kts | 308° |
| 2026-04-26 13:56 | 57.73411 | 8.65770 | 36304 ft | 405 kts | 306° |
| 2026-04-26 13:56 | 57.76769 | 8.57298 | 36296 ft | 405 kts | 306° |
| 2026-04-26 13:57 | 57.80123 | 8.48900 | 36277 ft | 405 kts | 306° |
| 2026-04-26 13:57 | 57.83516 | 8.40421 | 36281 ft | 407 kts | 306° |
| 2026-04-26 13:58 | 57.86906 | 8.31897 | 36284 ft | 407 kts | 306° |
| 2026-04-26 13:58 | 57.90295 | 8.23354 | 36282 ft | 408 kts | 306° |
| 2026-04-26 13:59 | 57.93685 | 8.14782 | 36286 ft | 408 kts | 306° |
| 2026-04-26 13:59 | 57.97059 | 8.06197 | 36310 ft | 408 kts | 306° |
| 2026-04-26 14:00 | 58.03766 | 7.89050 | 36281 ft | 407 kts | 306° |
| 2026-04-26 14:01 | 58.07126 | 7.80427 | 36287 ft | 408 kts | 306° |
| 2026-04-26 14:01 | 58.10478 | 7.71778 | 36289 ft | 408 kts | 306° |
| 2026-04-26 14:02 | 58.13830 | 7.63109 | 36287 ft | 408 kts | 305° |
| 2026-04-26 14:02 | 58.17176 | 7.54427 | 36284 ft | 408 kts | 305° |
| 2026-04-26 14:03 | 58.20517 | 7.45710 | 36284 ft | 408 kts | 305° |
| 2026-04-26 14:03 | 58.23851 | 7.36985 | 36273 ft | 409 kts | 305° |
| 2026-04-26 14:04 | 58.27185 | 7.28233 | 36292 ft | 409 kts | 305° |
| 2026-04-26 14:04 | 58.30519 | 7.19458 | 36282 ft | 409 kts | 305° |
| 2026-04-26 14:05 | 58.33847 | 7.10667 | 36283 ft | 410 kts | 305° |
| 2026-04-26 14:05 | 58.37169 | 7.01845 | 36282 ft | 410 kts | 305° |
| 2026-04-26 14:06 | 58.40457 | 6.93064 | 36279 ft | 410 kts | 305° |
| 2026-04-26 14:06 | 58.43764 | 6.84211 | 36269 ft | 410 kts | 304° |
| 2026-04-26 14:07 | 58.47074 | 6.75339 | 36271 ft | 410 kts | 304° |
| 2026-04-26 14:07 | 58.50381 | 6.66442 | 36282 ft | 410 kts | 304° |
| 2026-04-26 14:08 | 58.53680 | 6.57527 | 36285 ft | 411 kts | 304° |
| 2026-04-26 14:08 | 58.56971 | 6.48587 | 36298 ft | 411 kts | 304° |
| 2026-04-26 14:09 | 58.60248 | 6.39633 | 36299 ft | 410 kts | 304° |
| 2026-04-26 14:09 | 58.63527 | 6.30670 | 36299 ft | 410 kts | 304° |
| 2026-04-26 14:10 | 58.66801 | 6.21687 | 36295 ft | 411 kts | 304° |
| 2026-04-26 14:10 | 58.70074 | 6.12669 | 36303 ft | 411 kts | 304° |
| 2026-04-26 14:11 | 58.74979 | 5.99098 | 36318 ft | 412 kts | 304° |
| 2026-04-26 14:11 | 58.78243 | 5.90021 | 36327 ft | 412 kts | 304° |
| 2026-04-26 14:12 | 58.81501 | 5.80919 | 36340 ft | 412 kts | 304° |
| 2026-04-26 14:12 | 58.84748 | 5.71793 | 36341 ft | 412 kts | 303° |
| 2026-04-26 14:13 | 58.89714 | 5.58217 | 36324 ft | 413 kts | 307° |
| 2026-04-26 14:14 | 58.93394 | 5.49682 | 36350 ft | 413 kts | 309° |
| 2026-04-26 14:14 | 58.97125 | 5.41212 | 36343 ft | 413 kts | 309° |
| 2026-04-26 14:15 | 59.00781 | 5.32615 | 36352 ft | 413 kts | 308° |
| 2026-04-26 14:15 | 59.04388 | 5.23934 | 36351 ft | 413 kts | 308° |
| 2026-04-26 14:16 | 59.07988 | 5.15228 | 36348 ft | 413 kts | 308° |
| 2026-04-26 14:16 | 59.11595 | 5.06527 | 36342 ft | 413 kts | 308° |
| 2026-04-26 14:17 | 59.15204 | 4.97804 | 36342 ft | 414 kts | 307° |
| 2026-04-26 14:17 | 59.18805 | 4.89039 | 36344 ft | 414 kts | 307° |
| 2026-04-26 14:18 | 59.21792 | 4.81746 | 36351 ft | 414 kts | 307° |
| 2026-04-26 14:18 | 59.25388 | 4.72946 | 36372 ft | 415 kts | 307° |
| 2026-04-26 14:19 | 59.28984 | 4.64128 | 36371 ft | 415 kts | 307° |
| 2026-04-26 14:19 | 59.32572 | 4.55285 | 36374 ft | 415 kts | 307° |
| 2026-04-26 14:20 | 59.36149 | 4.46419 | 36362 ft | 415 kts | 307° |
| 2026-04-26 14:20 | 59.39728 | 4.37527 | 36363 ft | 415 kts | 307° |
| 2026-04-26 14:21 | 59.43302 | 4.28615 | 36367 ft | 416 kts | 307° |
| 2026-04-26 14:21 | 59.46871 | 4.19673 | 36368 ft | 416 kts | 307° |
| 2026-04-26 14:22 | 59.50441 | 4.10715 | 36371 ft | 416 kts | 307° |
| 2026-04-26 14:22 | 59.53999 | 4.01734 | 36396 ft | 416 kts | 307° |
| 2026-04-26 14:23 | 59.57531 | 3.92784 | 36387 ft | 416 kts | 307° |
| 2026-04-26 14:23 | 59.61084 | 3.83753 | 36375 ft | 417 kts | 306° |
| 2026-04-26 14:24 | 59.64636 | 3.74687 | 36374 ft | 417 kts | 306° |
| 2026-04-26 14:24 | 59.68187 | 3.65604 | 36374 ft | 418 kts | 306° |
| 2026-04-26 14:25 | 59.71735 | 3.56492 | 36374 ft | 418 kts | 306° |
| 2026-04-26 14:25 | 59.75271 | 3.47348 | 36375 ft | 418 kts | 306° |
| 2026-04-26 14:26 | 59.78803 | 3.38186 | 36374 ft | 418 kts | 306° |
| 2026-04-26 14:26 | 59.82330 | 3.29001 | 36375 ft | 418 kts | 306° |
| 2026-04-26 14:27 | 59.85853 | 3.19795 | 36388 ft | 419 kts | 306° |
| 2026-04-26 14:27 | 59.89375 | 3.10552 | 36377 ft | 419 kts | 306° |
| 2026-04-26 14:28 | 59.92899 | 3.01279 | 36372 ft | 420 kts | 306° |
| 2026-04-26 14:28 | 59.96418 | 2.91965 | 36373 ft | 420 kts | 305° |
| 2026-04-26 14:29 | 59.99933 | 2.82630 | 36373 ft | 421 kts | 305° |
| 2026-04-26 14:29 | 60.03449 | 2.73278 | 36372 ft | 421 kts | 305° |
| 2026-04-26 14:30 | 60.06954 | 2.63904 | 36368 ft | 421 kts | 305° |
| 2026-04-26 14:30 | 60.10456 | 2.54493 | 36368 ft | 421 kts | 305° |
| 2026-04-26 14:31 | 60.13957 | 2.45064 | 36369 ft | 422 kts | 305° |
| 2026-04-26 14:31 | 60.17424 | 2.35662 | 36376 ft | 422 kts | 305° |
| 2026-04-26 14:32 | 60.20912 | 2.26168 | 36371 ft | 423 kts | 305° |
| 2026-04-26 14:32 | 60.24407 | 2.16636 | 36369 ft | 423 kts | 304° |
| 2026-04-26 14:33 | 60.27892 | 2.07075 | 36370 ft | 423 kts | 304° |
| 2026-04-26 14:33 | 60.31368 | 1.97499 | 36365 ft | 424 kts | 304° |
| 2026-04-26 14:34 | 60.34856 | 1.87884 | 36364 ft | 424 kts | 304° |
| 2026-04-26 14:34 | 60.38332 | 1.78236 | 36365 ft | 425 kts | 304° |
| 2026-04-26 14:35 | 60.41800 | 1.68556 | 36365 ft | 425 kts | 304° |
| 2026-04-26 14:35 | 60.45264 | 1.58855 | 36390 ft | 425 kts | 304° |
| 2026-04-26 14:36 | 60.48728 | 1.49128 | 36377 ft | 426 kts | 304° |
| 2026-04-26 14:36 | 60.52174 | 1.39384 | 36372 ft | 426 kts | 304° |
| 2026-04-26 14:37 | 60.55632 | 1.29595 | 36358 ft | 427 kts | 304° |
| 2026-04-26 14:37 | 60.59087 | 1.19760 | 36356 ft | 428 kts | 304° |
| 2026-04-26 14:38 | 60.62536 | 1.09882 | 36356 ft | 428 kts | 304° |
| 2026-04-26 14:38 | 60.65990 | 0.99993 | 36355 ft | 428 kts | 303° |
| 2026-04-26 14:39 | 60.69431 | 0.90066 | 36357 ft | 429 kts | 303° |
| 2026-04-26 14:39 | 60.72871 | 0.80117 | 36353 ft | 429 kts | 303° |
| 2026-04-26 14:40 | 60.76304 | 0.70142 | 36369 ft | 429 kts | 303° |
| 2026-04-26 14:40 | 60.79728 | 0.60126 | 36354 ft | 430 kts | 303° |
| 2026-04-26 14:41 | 60.83151 | 0.50075 | 36344 ft | 431 kts | 303° |
| 2026-04-26 14:41 | 60.86571 | 0.39983 | 36343 ft | 431 kts | 303° |
| 2026-04-26 14:42 | 60.89990 | 0.29867 | 36345 ft | 431 kts | 303° |
| 2026-04-26 14:42 | 60.93407 | 0.19724 | 36343 ft | 432 kts | 303° |
| 2026-04-26 14:43 | 60.96813 | 0.09554 | 36345 ft | 432 kts | 303° |
| 2026-04-26 14:43 | 61.00011 | -0.00878 | 36345 ft | 430 kts | 293° |
| 2026-04-26 14:44 | 61.02030 | -0.12440 | 36332 ft | 429 kts | 287° |
| 2026-04-26 14:44 | 61.03918 | -0.24125 | 36330 ft | 430 kts | 287° |
| 2026-04-26 14:45 | 61.05804 | -0.35845 | 36342 ft | 430 kts | 287° |
| 2026-04-26 14:45 | 61.07682 | -0.47596 | 36336 ft | 431 kts | 287° |
| 2026-04-26 14:46 | 61.09555 | -0.59359 | 36331 ft | 431 kts | 287° |
| 2026-04-26 14:46 | 61.11417 | -0.71152 | 36330 ft | 432 kts | 287° |
| 2026-04-26 14:47 | 61.13259 | -0.82971 | 36335 ft | 432 kts | 287° |
| 2026-04-26 14:47 | 61.15088 | -0.94813 | 36329 ft | 432 kts | 287° |
| 2026-04-26 14:48 | 61.16903 | -1.06574 | 36333 ft | 432 kts | 287° |
| 2026-04-26 14:48 | 61.18718 | -1.18440 | 36320 ft | 432 kts | 286° |
| 2026-04-26 14:49 | 61.20522 | -1.30317 | 36317 ft | 432 kts | 286° |
| 2026-04-26 14:49 | 61.22319 | -1.42209 | 36320 ft | 432 kts | 286° |
| 2026-04-26 14:50 | 61.24110 | -1.54117 | 36316 ft | 432 kts | 286° |
| 2026-04-26 14:50 | 61.25891 | -1.66049 | 36314 ft | 433 kts | 286° |
| 2026-04-26 14:51 | 61.27662 | -1.78003 | 36303 ft | 433 kts | 285° |
| 2026-04-26 14:51 | 61.29421 | -1.89974 | 36304 ft | 433 kts | 285° |
| 2026-04-26 14:52 | 61.31169 | -2.01959 | 36305 ft | 433 kts | 285° |
| 2026-04-26 14:52 | 61.32906 | -2.13962 | 36317 ft | 433 kts | 285° |
| 2026-04-26 14:53 | 61.34633 | -2.25991 | 36304 ft | 434 kts | 285° |
| 2026-04-26 14:53 | 61.36351 | -2.38041 | 36304 ft | 434 kts | 285° |
| 2026-04-26 14:54 | 61.38060 | -2.50103 | 36296 ft | 434 kts | 285° |
| 2026-04-26 14:54 | 61.39760 | -2.62178 | 36290 ft | 434 kts | 285° |
| 2026-04-26 14:55 | 61.41437 | -2.74197 | 36288 ft | 434 kts | 285° |
| 2026-04-26 14:55 | 61.43126 | -2.86394 | 36284 ft | 434 kts | 284° |
| 2026-04-26 14:56 | 61.44777 | -2.98441 | 36282 ft | 434 kts | 284° |
| 2026-04-26 14:56 | 61.46443 | -3.10582 | 36272 ft | 435 kts | 284° |
| 2026-04-26 14:57 | 61.48092 | -3.22756 | 36274 ft | 435 kts | 284° |
| 2026-04-26 14:57 | 61.49729 | -3.34945 | 36277 ft | 435 kts | 284° |
| 2026-04-26 14:58 | 61.51356 | -3.47133 | 36264 ft | 435 kts | 283° |
| 2026-04-26 14:58 | 61.52975 | -3.59345 | 36271 ft | 435 kts | 283° |
| 2026-04-26 14:59 | 61.54577 | -3.71580 | 36259 ft | 435 kts | 283° |
| 2026-04-26 14:59 | 61.56174 | -3.83822 | 36261 ft | 435 kts | 283° |
| 2026-04-26 15:00 | 61.57766 | -3.96074 | 36246 ft | 435 kts | 283° |
| 2026-04-26 15:00 | 61.59337 | -4.08339 | 36244 ft | 436 kts | 283° |
| 2026-04-26 15:01 | 61.60898 | -4.20630 | 36246 ft | 436 kts | 283° |
| 2026-04-26 15:01 | 61.62451 | -4.32946 | 36065 ft | 436 kts | 282° |
| 2026-04-26 15:01 | 61.63225 | -4.39107 | 35816 ft | 436 kts | 283° |
| 2026-04-26 15:02 | 61.64000 | -4.45278 | 35570 ft | 437 kts | 282° |
| 2026-04-26 15:02 | 61.64773 | -4.51460 | 34944 ft | 439 kts | 282° |
| 2026-04-26 15:02 | 61.65548 | -4.57706 | 34069 ft | 444 kts | 282° |
| 2026-04-26 15:02 | 61.66326 | -4.64018 | 33110 ft | 447 kts | 281° |
| 2026-04-26 15:03 | 61.67093 | -4.70285 | 32180 ft | 449 kts | 283° |
| 2026-04-26 15:03 | 61.67871 | -4.76655 | 31266 ft | 450 kts | 281° |
| 2026-04-26 15:03 | 61.68650 | -4.83039 | 30292 ft | 452 kts | 281° |
| 2026-04-26 15:03 | 61.69430 | -4.89477 | 29300 ft | 451 kts | 281° |
| 2026-04-26 15:04 | 61.70195 | -4.95787 | 28835 ft | 440 kts | 282° |
| 2026-04-26 15:04 | 61.70946 | -5.02006 | 28187 ft | 436 kts | 281° |
| 2026-04-26 15:04 | 61.71684 | -5.08172 | 27548 ft | 431 kts | 281° |
| 2026-04-26 15:04 | 61.72408 | -5.14262 | 26905 ft | 426 kts | 281° |
| 2026-04-26 15:05 | 61.73122 | -5.20296 | 26287 ft | 422 kts | 281° |
| 2026-04-26 15:05 | 61.73361 | -5.22328 | 26065 ft | 421 kts | 281° |
| 2026-04-26 15:05 | 61.74524 | -5.32210 | 25061 ft | 415 kts | 281° |
| 2026-04-26 15:05 | 61.75216 | -5.38100 | 24461 ft | 411 kts | 280° |
| 2026-04-26 15:06 | 61.75901 | -5.43944 | 23851 ft | 409 kts | 281° |
| 2026-04-26 15:06 | 61.76578 | -5.49740 | 23199 ft | 406 kts | 281° |
| 2026-04-26 15:06 | 61.77023 | -5.53569 | 22817 ft | 403 kts | 281° |
| 2026-04-26 15:06 | 61.77679 | -5.59281 | 22265 ft | 398 kts | 280° |
| 2026-04-26 15:07 | 61.78967 | -5.70543 | 21198 ft | 391 kts | 281° |
| 2026-04-26 15:07 | 61.79602 | -5.76118 | 20680 ft | 389 kts | 280° |
| 2026-04-26 15:07 | 61.80236 | -5.81668 | 20170 ft | 387 kts | 283° |
| 2026-04-26 15:08 | 61.80861 | -5.87182 | 19665 ft | 384 kts | 280° |
| 2026-04-26 15:08 | 61.81479 | -5.92654 | 19161 ft | 381 kts | 281° |
| 2026-04-26 15:08 | 61.82095 | -5.98097 | 18647 ft | 379 kts | 281° |
| 2026-04-26 15:08 | 61.82699 | -6.03510 | 18060 ft | 377 kts | 280° |
| 2026-04-26 15:09 | 61.83295 | -6.08882 | 17524 ft | 373 kts | 277° |
| 2026-04-26 15:09 | 61.83882 | -6.14191 | 16990 ft | 368 kts | 280° |
| 2026-04-26 15:09 | 61.84462 | -6.19439 | 16446 ft | 364 kts | 279° |
| 2026-04-26 15:09 | 61.85036 | -6.24639 | 15901 ft | 361 kts | 280° |
| 2026-04-26 15:10 | 61.85607 | -6.29800 | 15349 ft | 358 kts | 281° |
| 2026-04-26 15:10 | 61.85982 | -6.33199 | 14982 ft | 357 kts | 280° |
| 2026-04-26 15:10 | 61.86727 | -6.40021 | 14241 ft | 354 kts | 280° |
| 2026-04-26 15:10 | 61.87273 | -6.45085 | 13669 ft | 352 kts | 279° |
| 2026-04-26 15:11 | 61.87816 | -6.50120 | 13094 ft | 349 kts | 280° |
| 2026-04-26 15:11 | 61.88346 | -6.55035 | 12577 ft | 345 kts | 278° |
| 2026-04-26 15:11 | 61.88976 | -6.59931 | 12043 ft | 343 kts | 285° |
| 2026-04-26 15:11 | 61.89720 | -6.64705 | 11520 ft | 340 kts | 286° |
| 2026-04-26 15:12 | 61.90453 | -6.69445 | 10993 ft | 337 kts | 285° |
| 2026-04-26 15:12 | 61.91173 | -6.74115 | 10750 ft | 326 kts | 285° |
| 2026-04-26 15:12 | 61.91866 | -6.78604 | 10621 ft | 314 kts | 284° |
| 2026-04-26 15:12 | 61.92531 | -6.82925 | 10494 ft | 302 kts | 284° |
| 2026-04-26 15:13 | 61.93171 | -6.87096 | 10382 ft | 292 kts | 284° |
| 2026-04-26 15:13 | 61.93787 | -6.91146 | 10185 ft | 285 kts | 284° |
| 2026-04-26 15:13 | 61.94389 | -6.95123 | 10028 ft | 282 kts | 285° |
| 2026-04-26 15:13 | 61.94993 | -6.99114 | 9566 ft | 288 kts | 284° |
| 2026-04-26 15:14 | 61.95601 | -7.03148 | 9304 ft | 284 kts | 285° |
| 2026-04-26 15:14 | 61.96200 | -7.07103 | 8782 ft | 279 kts | 285° |
| 2026-04-26 15:14 | 61.96791 | -7.11016 | 8156 ft | 277 kts | 284° |
| 2026-04-26 15:14 | 61.97373 | -7.14887 | 7565 ft | 274 kts | 284° |
| 2026-04-26 15:15 | 61.97948 | -7.18726 | 6981 ft | 271 kts | 284° |
| 2026-04-26 15:15 | 61.98514 | -7.22529 | 6383 ft | 269 kts | 285° |
| 2026-04-26 15:15 | 61.99071 | -7.26298 | 5759 ft | 266 kts | 285° |
| 2026-04-26 15:15 | 61.99629 | -7.30059 | 5354 ft | 262 kts | 285° |
| 2026-04-26 15:16 | 62.00162 | -7.33630 | 5217 ft | 246 kts | 285° |
| 2026-04-26 15:16 | 62.00670 | -7.37043 | 5100 ft | 238 kts | 285° |
| 2026-04-26 15:16 | 62.01159 | -7.40338 | 4999 ft | 228 kts | 285° |
| 2026-04-26 15:16 | 62.01622 | -7.43458 | 4891 ft | 215 kts | 284° |
| 2026-04-26 15:17 | 62.02060 | -7.46397 | 4801 ft | 202 kts | 284° |
| 2026-04-26 15:17 | 62.02334 | -7.48238 | 4783 ft | 191 kts | 284° |
| 2026-04-26 15:17 | 62.02919 | -7.51678 | 4474 ft | 186 kts | 294° |
| 2026-04-26 15:17 | 62.03712 | -7.53897 | 4164 ft | 188 kts | 313° |
| 2026-04-26 15:18 | 62.04746 | -7.55467 | 4007 ft | 180 kts | 329° |
| 2026-04-26 15:18 | 62.05965 | -7.56248 | 3756 ft | 186 kts | 354° |
| 2026-04-26 15:18 | 62.07238 | -7.55932 | 3459 ft | 185 kts | 21° |
| 2026-04-26 15:18 | 62.08313 | -7.54634 | 3180 ft | 179 kts | 46° |
| 2026-04-26 15:19 | 62.09063 | -7.52608 | 2919 ft | 172 kts | 67° |
| 2026-04-26 15:19 | 62.09406 | -7.50239 | 2667 ft | 164 kts | 89° |
| 2026-04-26 15:19 | 62.09343 | -7.47873 | 2439 ft | 156 kts | 110° |
| 2026-04-26 15:19 | 62.09071 | -7.45688 | 2155 ft | 148 kts | 111° |
| 2026-04-26 15:20 | 62.08822 | -7.43657 | 1905 ft | 135 kts | 110° |
| 2026-04-26 15:20 | 62.08586 | -7.41764 | 1703 ft | 131 kts | 111° |
| 2026-04-26 15:20 | 62.08353 | -7.39915 | 1504 ft | 127 kts | 112° |
| 2026-04-26 15:20 | 62.08126 | -7.38104 | 1306 ft | 124 kts | 111° |
| 2026-04-26 15:21 | 62.07905 | -7.36340 | 1117 ft | 121 kts | 111° |
| 2026-04-26 15:21 | 62.07694 | -7.34619 | 939 ft | 122 kts | 108° |
| 2026-04-26 15:21 | 62.07477 | -7.32870 | 757 ft | 124 kts | 107° |
| 2026-04-26 15:21 | 62.07203 | -7.31140 | 543 ft | 122 kts | 116° |
| 2026-04-26 15:22 | 62.06805 | -7.29530 | 357 ft | 121 kts | 116° |
| 2026-04-26 15:22 | 62.06435 | -7.28021 | 295 ft | 99 kts | 119° |
| 2026-04-26 15:22 | 62.06227 | -7.27192 | 280 ft | 36 kts | 118° |
| 2026-04-26 15:22 | 62.06184 | -7.26971 | 277 ft | 6 kts | 109° |
| 2026-04-26 15:23 | 62.06167 | -7.26972 | 274 ft | 2 kts | 235° |
| 2026-04-26 15:23 | 62.06177 | -7.27018 | 278 ft | 7 kts | 299° |
| 2026-04-26 15:23 | 62.06214 | -7.27159 | 280 ft | 15 kts | 299° |
| 2026-04-26 15:23 | 62.06278 | -7.27401 | 289 ft | 22 kts | 299° |
| 2026-04-26 15:24 | 62.06354 | -7.27702 | 295 ft | 26 kts | 298° |
| 2026-04-26 15:24 | 62.06438 | -7.28040 | 292 ft | 20 kts | 298° |
| 2026-04-26 15:24 | 62.06490 | -7.28150 | 292 ft | 11 kts | 359° |
| 2026-04-26 15:24 | 62.06558 | -7.28103 | 290 ft | 8 kts | 15° |
| 2026-04-26 15:25 | 62.06617 | -7.28089 | 289 ft | 9 kts | 359° |
| 2026-04-26 15:25 | 62.06649 | -7.28051 | 293 ft | 9 kts | 63° |
| 2026-04-26 15:25 | 62.06638 | -7.27894 | 289 ft | 1 kts | 70° |
| 2026-04-26 15:25 | 62.06648 | -7.27889 | 292 ft | 2 kts | 25° |
| 2026-04-26 15:26 | 62.06665 | -7.27869 | 290 ft | 3 kts | 28° |
| 2026-04-26 15:26 | 62.06667 | -7.27866 | 290 ft | 0 kts | 28° |